<?xml version="1.0" encoding="UTF-8" standalone="no" ?>
<gpx xmlns="http://www.topografix.com/GPX/1/1" xmlns:xsi="http://www.w3.org/2001/XMLSchema-instance" xsi:schemaLocation="http://www.topografix.com/GPX/1/1 http://www.topografix.com/GPX/1/1/gpx.xsd" version="1.1" creator="VisuGPX - https://www.visugpx.com">
  <metadata>
    <name>Randonnée de Bagdad circuit  de l'après-midi  le 18 11 2018</name>
    <desc><![CDATA[Randonnée pédestre  de Barsac circuit de l'après-midi  le 18 11 2018]]></desc>
  </metadata>
  <trk>
    <name><![CDATA[Tracé 18 nov. 2018 13:46:52]]></name>
    <trkseg>
      <trkpt lat="44.60196" lon="-0.30353">
        <ele>9</ele>
        <time>2018-11-18T12:46:52Z</time>
      </trkpt>
      <trkpt lat="44.60245" lon="-0.30303">
        <ele>-21.1901888</ele>
        <time>2018-11-18T12:47:01Z</time>
      </trkpt>
      <trkpt lat="44.60211" lon="-0.3034">
        <ele>9</ele>
        <time>2018-11-18T12:47:33Z</time>
      </trkpt>
      <trkpt lat="44.60194" lon="-0.30283">
        <ele>-53.9922264</ele>
        <time>2018-11-18T12:49:03Z</time>
      </trkpt>
      <trkpt lat="44.60168" lon="-0.30245">
        <ele>-53.1932928</ele>
        <time>2018-11-18T12:49:35Z</time>
      </trkpt>
      <trkpt lat="44.60133" lon="-0.30217">
        <ele>-46.6946896</ele>
        <time>2018-11-18T12:49:53Z</time>
      </trkpt>
      <trkpt lat="44.60091" lon="-0.30194">
        <ele>-39.0963504</ele>
        <time>2018-11-18T12:50:17Z</time>
      </trkpt>
      <trkpt lat="44.60067" lon="-0.30142">
        <ele>-48.8973056</ele>
        <time>2018-11-18T12:51:22Z</time>
      </trkpt>
      <trkpt lat="44.60025" lon="-0.3012">
        <ele>-47.0989828</ele>
        <time>2018-11-18T12:51:55Z</time>
      </trkpt>
      <trkpt lat="44.59989" lon="-0.30088">
        <ele>-44.400436</ele>
        <time>2018-11-18T12:52:25Z</time>
      </trkpt>
      <trkpt lat="44.59947" lon="-0.30066">
        <ele>-40.3021084</ele>
        <time>2018-11-18T12:53:03Z</time>
      </trkpt>
      <trkpt lat="44.59928" lon="-0.30119">
        <ele>-48.6028696</ele>
        <time>2018-11-18T12:53:37Z</time>
      </trkpt>
      <trkpt lat="44.59908" lon="-0.30173">
        <ele>-55.2036868</ele>
        <time>2018-11-18T12:54:13Z</time>
      </trkpt>
      <trkpt lat="44.5993" lon="-0.3012">
        <ele>-51.5027824</ele>
        <time>2018-11-18T12:59:05Z</time>
      </trkpt>
      <trkpt lat="44.59902" lon="-0.30076">
        <ele>-47.703916</ele>
        <time>2018-11-18T12:59:45Z</time>
      </trkpt>
      <trkpt lat="44.59863" lon="-0.30047">
        <ele>-43.5055004</ele>
        <time>2018-11-18T13:00:16Z</time>
      </trkpt>
      <trkpt lat="44.59823" lon="-0.30019">
        <ele>-41.6071012</ele>
        <time>2018-11-18T13:00:57Z</time>
      </trkpt>
      <trkpt lat="44.59781" lon="-0.29997">
        <ele>-40.108762</ele>
        <time>2018-11-18T13:01:34Z</time>
      </trkpt>
      <trkpt lat="44.5974" lon="-0.29975">
        <ele>-38.9104216</ele>
        <time>2018-11-18T13:02:07Z</time>
      </trkpt>
      <trkpt lat="44.59699" lon="-0.29952">
        <ele>-38.5120456</ele>
        <time>2018-11-18T13:02:41Z</time>
      </trkpt>
      <trkpt lat="44.59658" lon="-0.29927">
        <ele>-43.91369</ele>
        <time>2018-11-18T13:03:19Z</time>
      </trkpt>
      <trkpt lat="44.59615" lon="-0.29909">
        <ele>-47.6153972</ele>
        <time>2018-11-18T13:03:56Z</time>
      </trkpt>
      <trkpt lat="44.59572" lon="-0.29895">
        <ele>-41.8171072</ele>
        <time>2018-11-18T13:04:31Z</time>
      </trkpt>
      <trkpt lat="44.59533" lon="-0.29867">
        <ele>-43.0186848</ele>
        <time>2018-11-18T13:05:05Z</time>
      </trkpt>
      <trkpt lat="44.59495" lon="-0.29835">
        <ele>-43.3202068</ele>
        <time>2018-11-18T13:05:41Z</time>
      </trkpt>
      <trkpt lat="44.59455" lon="-0.29812">
        <ele>-48.3218132</ele>
        <time>2018-11-18T13:06:34Z</time>
      </trkpt>
      <trkpt lat="44.59423" lon="-0.2977">
        <ele>-52.3230856</ele>
        <time>2018-11-18T13:07:32Z</time>
      </trkpt>
      <trkpt lat="44.5938" lon="-0.29753">
        <ele>-45.924812</ele>
        <time>2018-11-18T13:08:16Z</time>
      </trkpt>
      <trkpt lat="44.59336" lon="-0.29742">
        <ele>-48.426556</ele>
        <time>2018-11-18T13:09:11Z</time>
      </trkpt>
      <trkpt lat="44.59292" lon="-0.2974">
        <ele>-58.5283072</ele>
        <time>2018-11-18T13:10:24Z</time>
      </trkpt>
      <trkpt lat="44.59258" lon="-0.29703">
        <ele>-44.429698</ele>
        <time>2018-11-18T13:11:04Z</time>
      </trkpt>
      <trkpt lat="44.59219" lon="-0.29674">
        <ele>-50.33125</ele>
        <time>2018-11-18T13:11:48Z</time>
      </trkpt>
      <trkpt lat="44.59178" lon="-0.29651">
        <ele>-42.0328976</ele>
        <time>2018-11-18T13:12:29Z</time>
      </trkpt>
      <trkpt lat="44.59142" lon="-0.29618">
        <ele>-53.5343332</ele>
        <time>2018-11-18T13:13:16Z</time>
      </trkpt>
      <trkpt lat="44.59101" lon="-0.29591">
        <ele>-43.2359488</ele>
        <time>2018-11-18T13:13:54Z</time>
      </trkpt>
      <trkpt lat="44.59063" lon="-0.29559">
        <ele>-48.5374676</ele>
        <time>2018-11-18T13:14:33Z</time>
      </trkpt>
      <trkpt lat="44.59024" lon="-0.29534">
        <ele>-52.7390496</ele>
        <time>2018-11-18T13:15:18Z</time>
      </trkpt>
      <trkpt lat="44.58985" lon="-0.29507">
        <ele>-64.1406092</ele>
        <time>2018-11-18T13:16:00Z</time>
      </trkpt>
      <trkpt lat="44.58952" lon="-0.29465">
        <ele>-40.4419056</ele>
        <time>2018-11-18T13:16:39Z</time>
      </trkpt>
      <trkpt lat="44.58911" lon="-0.29442">
        <ele>-43.74356</ele>
        <time>2018-11-18T13:19:02Z</time>
      </trkpt>
      <trkpt lat="44.58872" lon="-0.29418">
        <ele>-53.5451352</ele>
        <time>2018-11-18T13:19:42Z</time>
      </trkpt>
      <trkpt lat="44.5883" lon="-0.294">
        <ele>-44.54681</ele>
        <time>2018-11-18T13:20:27Z</time>
      </trkpt>
      <trkpt lat="44.58789" lon="-0.29379">
        <ele>-54.2484564</ele>
        <time>2018-11-18T13:21:09Z</time>
      </trkpt>
      <trkpt lat="44.58744" lon="-0.29377">
        <ele>-52.5502348</ele>
        <time>2018-11-18T13:21:48Z</time>
      </trkpt>
      <trkpt lat="44.58699" lon="-0.29381">
        <ele>-58.6520236</ele>
        <time>2018-11-18T13:22:28Z</time>
      </trkpt>
      <trkpt lat="44.58656" lon="-0.29365">
        <ele>-55.6537476</ele>
        <time>2018-11-18T13:23:09Z</time>
      </trkpt>
      <trkpt lat="44.58613" lon="-0.29351">
        <ele>-46.555488</ele>
        <time>2018-11-18T13:23:50Z</time>
      </trkpt>
      <trkpt lat="44.5858" lon="-0.29392">
        <ele>-50.9568208</ele>
        <time>2018-11-18T13:24:38Z</time>
      </trkpt>
      <trkpt lat="44.58562" lon="-0.29448">
        <ele>-135.2575084</ele>
        <time>2018-11-18T13:26:24Z</time>
      </trkpt>
      <trkpt lat="44.58534" lon="-0.29491">
        <ele>11.7</ele>
        <time>2018-11-18T13:26:41Z</time>
      </trkpt>
      <trkpt lat="44.585" lon="-0.2953">
        <ele>-144.359992</ele>
        <time>2018-11-18T13:27:42Z</time>
      </trkpt>
      <trkpt lat="44.58494" lon="-0.29585">
        <ele>-148.0602544</ele>
        <time>2018-11-18T13:27:59Z</time>
      </trkpt>
      <trkpt lat="44.5851" lon="-0.2953">
        <ele>11</ele>
        <time>2018-11-18T13:29:19Z</time>
      </trkpt>
      <trkpt lat="44.58543" lon="-0.29574">
        <ele>-52.358296</ele>
        <time>2018-11-18T13:31:44Z</time>
      </trkpt>
      <trkpt lat="44.58554" lon="-0.29557">
        <ele>10.1</ele>
        <time>2018-11-18T13:34:48Z</time>
      </trkpt>
      <trkpt lat="44.58533" lon="-0.29607">
        <ele>11</ele>
        <time>2018-11-18T13:38:34Z</time>
      </trkpt>
      <trkpt lat="44.58533" lon="-0.2967">
        <ele>-91.8586976</ele>
        <time>2018-11-18T13:39:51Z</time>
      </trkpt>
      <trkpt lat="44.58545" lon="-0.29729">
        <ele>-90.658202</ele>
        <time>2018-11-18T13:40:26Z</time>
      </trkpt>
      <trkpt lat="44.58514" lon="-0.29774">
        <ele>12</ele>
        <time>2018-11-18T13:40:54Z</time>
      </trkpt>
      <trkpt lat="44.58543" lon="-0.29821">
        <ele>-81.0583</ele>
        <time>2018-11-18T13:42:27Z</time>
      </trkpt>
      <trkpt lat="44.58563" lon="-0.29874">
        <ele>-72.5574664</ele>
        <time>2018-11-18T13:43:16Z</time>
      </trkpt>
      <trkpt lat="44.58582" lon="-0.29931">
        <ele>-93.8567192</ele>
        <time>2018-11-18T13:44:08Z</time>
      </trkpt>
      <trkpt lat="44.58624" lon="-0.29939">
        <ele>-96.1550244</ele>
        <time>2018-11-18T13:44:24Z</time>
      </trkpt>
      <trkpt lat="44.58668" lon="-0.29941">
        <ele>-80.153268</ele>
        <time>2018-11-18T13:44:54Z</time>
      </trkpt>
      <trkpt lat="44.5871" lon="-0.29958">
        <ele>-62.2516124</ele>
        <time>2018-11-18T13:45:24Z</time>
      </trkpt>
      <trkpt lat="44.58753" lon="-0.29962">
        <ele>-54.8498864</ele>
        <time>2018-11-18T13:46:04Z</time>
      </trkpt>
      <trkpt lat="44.58787" lon="-0.3">
        <ele>-59.7485072</ele>
        <time>2018-11-18T13:46:56Z</time>
      </trkpt>
      <trkpt lat="44.58772" lon="-0.30059">
        <ele>-27.1491284</ele>
        <time>2018-11-18T13:47:32Z</time>
      </trkpt>
      <trkpt lat="44.58776" lon="-0.30121">
        <ele>-27.9489784</ele>
        <time>2018-11-18T13:48:09Z</time>
      </trkpt>
      <trkpt lat="44.58757" lon="-0.30178">
        <ele>-54.2497032</ele>
        <time>2018-11-18T13:48:48Z</time>
      </trkpt>
      <trkpt lat="44.5872" lon="-0.3021">
        <ele>-46.5512012</ele>
        <time>2018-11-18T13:49:29Z</time>
      </trkpt>
      <trkpt lat="44.58697" lon="-0.30264">
        <ele>-26.252128</ele>
        <time>2018-11-18T13:50:04Z</time>
      </trkpt>
      <trkpt lat="44.58666" lon="-0.30308">
        <ele>-41.9533476</ele>
        <time>2018-11-18T13:50:39Z</time>
      </trkpt>
      <trkpt lat="44.58643" lon="-0.30362">
        <ele>-45.4542792</ele>
        <time>2018-11-18T13:51:18Z</time>
      </trkpt>
      <trkpt lat="44.58615" lon="-0.30408">
        <ele>-88.35541</ele>
        <time>2018-11-18T13:51:58Z</time>
      </trkpt>
      <trkpt lat="44.58589" lon="-0.30457">
        <ele>-86.95644</ele>
        <time>2018-11-18T13:52:28Z</time>
      </trkpt>
      <trkpt lat="44.58591" lon="-0.30518">
        <ele>-56.9563504</ele>
        <time>2018-11-18T13:54:48Z</time>
      </trkpt>
      <trkpt lat="44.58608" lon="-0.30577">
        <ele>-61.9556924</ele>
        <time>2018-11-18T13:55:29Z</time>
      </trkpt>
      <trkpt lat="44.58632" lon="-0.30629">
        <ele>-61.55472</ele>
        <time>2018-11-18T13:56:09Z</time>
      </trkpt>
      <trkpt lat="44.58652" lon="-0.30685">
        <ele>-50.0539396</ele>
        <time>2018-11-18T13:56:50Z</time>
      </trkpt>
      <trkpt lat="44.58651" lon="-0.30748">
        <ele>-52.9539544</ele>
        <time>2018-11-18T13:58:00Z</time>
      </trkpt>
      <trkpt lat="44.58607" lon="-0.30741">
        <ele>-39.4557248</ele>
        <time>2018-11-18T13:58:48Z</time>
      </trkpt>
      <trkpt lat="44.58577" lon="-0.30785">
        <ele>-42.65693</ele>
        <time>2018-11-18T13:59:14Z</time>
      </trkpt>
      <trkpt lat="44.58547" lon="-0.30827">
        <ele>-31.7581188</ele>
        <time>2018-11-18T13:59:50Z</time>
      </trkpt>
      <trkpt lat="44.58512" lon="-0.30866">
        <ele>-57.3595136</ele>
        <time>2018-11-18T14:00:22Z</time>
      </trkpt>
      <trkpt lat="44.58472" lon="-0.30893">
        <ele>-29.5611396</ele>
        <time>2018-11-18T14:01:04Z</time>
      </trkpt>
      <trkpt lat="44.58436" lon="-0.30924">
        <ele>-33.462548</ele>
        <time>2018-11-18T14:01:36Z</time>
      </trkpt>
      <trkpt lat="44.58398" lon="-0.30948">
        <ele>-46.9640956</ele>
        <time>2018-11-18T14:02:11Z</time>
      </trkpt>
      <trkpt lat="44.58354" lon="-0.30962">
        <ele>-47.165832</ele>
        <time>2018-11-18T14:02:50Z</time>
      </trkpt>
      <trkpt lat="44.58312" lon="-0.30982">
        <ele>-87.7675072</ele>
        <time>2018-11-18T14:03:32Z</time>
      </trkpt>
      <trkpt lat="44.58295" lon="-0.31039">
        <ele>-104.7682108</ele>
        <time>2018-11-18T14:04:34Z</time>
      </trkpt>
      <trkpt lat="44.58287" lon="-0.31098">
        <ele>-25.5685232</ele>
        <time>2018-11-18T14:07:14Z</time>
      </trkpt>
      <trkpt lat="44.58283" lon="-0.31161">
        <ele>-68.0686624</ele>
        <time>2018-11-18T14:08:28Z</time>
      </trkpt>
      <trkpt lat="44.58273" lon="-0.31222">
        <ele>-36.3690924</ele>
        <time>2018-11-18T14:13:03Z</time>
      </trkpt>
      <trkpt lat="44.58284" lon="-0.31161">
        <ele>-46.1686248</ele>
        <time>2018-11-18T14:14:17Z</time>
      </trkpt>
      <trkpt lat="44.5828" lon="-0.31101">
        <ele>-40.9687868</ele>
        <time>2018-11-18T14:15:06Z</time>
      </trkpt>
      <trkpt lat="44.58325" lon="-0.31107">
        <ele>-113.067012</ele>
        <time>2018-11-18T14:16:30Z</time>
      </trkpt>
      <trkpt lat="44.58369" lon="-0.31102">
        <ele>-106.0652416</ele>
        <time>2018-11-18T14:17:12Z</time>
      </trkpt>
      <trkpt lat="44.58411" lon="-0.31119">
        <ele>-99.16357</ele>
        <time>2018-11-18T14:17:56Z</time>
      </trkpt>
      <trkpt lat="44.58442" lon="-0.31153">
        <ele>-101.7623264</ele>
        <time>2018-11-18T14:18:12Z</time>
      </trkpt>
      <trkpt lat="44.58482" lon="-0.31131">
        <ele>-90.56071</ele>
        <time>2018-11-18T14:18:27Z</time>
      </trkpt>
      <trkpt lat="44.58508" lon="-0.3108">
        <ele>-76.359664</ele>
        <time>2018-11-18T14:18:47Z</time>
      </trkpt>
      <trkpt lat="44.5855" lon="-0.31101">
        <ele>-58.2580164</ele>
        <time>2018-11-18T14:19:54Z</time>
      </trkpt>
      <trkpt lat="44.58594" lon="-0.31096">
        <ele>-48.8562392</ele>
        <time>2018-11-18T14:21:05Z</time>
      </trkpt>
      <trkpt lat="44.58638" lon="-0.31107">
        <ele>-44.25449</ele>
        <time>2018-11-18T14:21:46Z</time>
      </trkpt>
      <trkpt lat="44.58681" lon="-0.31122">
        <ele>-48.4527632</ele>
        <time>2018-11-18T14:22:38Z</time>
      </trkpt>
      <trkpt lat="44.58724" lon="-0.31137">
        <ele>-37.451034</ele>
        <time>2018-11-18T14:23:12Z</time>
      </trkpt>
      <trkpt lat="44.58767" lon="-0.31156">
        <ele>-54.1493288</ele>
        <time>2018-11-18T14:23:59Z</time>
      </trkpt>
      <trkpt lat="44.58803" lon="-0.3118">
        <ele>-64.847862</ele>
        <time>2018-11-18T14:24:42Z</time>
      </trkpt>
      <trkpt lat="44.58848" lon="-0.31187">
        <ele>-39.3460808</ele>
        <time>2018-11-18T14:25:30Z</time>
      </trkpt>
      <trkpt lat="44.5889" lon="-0.31206">
        <ele>-63.8444108</ele>
        <time>2018-11-18T14:26:17Z</time>
      </trkpt>
      <trkpt lat="44.58925" lon="-0.31243">
        <ele>-61.0430048</ele>
        <time>2018-11-18T14:27:06Z</time>
      </trkpt>
      <trkpt lat="44.58967" lon="-0.31258">
        <ele>-46.4413284</ele>
        <time>2018-11-18T14:27:48Z</time>
      </trkpt>
      <trkpt lat="44.59008" lon="-0.31275">
        <ele>-68.6396732</ele>
        <time>2018-11-18T14:28:38Z</time>
      </trkpt>
      <trkpt lat="44.59049" lon="-0.31289">
        <ele>-53.6380496</ele>
        <time>2018-11-18T14:29:18Z</time>
      </trkpt>
      <trkpt lat="44.5909" lon="-0.31299">
        <ele>-51.736384</ele>
        <time>2018-11-18T14:29:54Z</time>
      </trkpt>
      <trkpt lat="44.59133" lon="-0.31315">
        <ele>-50.0346716</ele>
        <time>2018-11-18T14:30:41Z</time>
      </trkpt>
      <trkpt lat="44.59174" lon="-0.31341">
        <ele>-75.1330452</ele>
        <time>2018-11-18T14:31:26Z</time>
      </trkpt>
      <trkpt lat="44.59217" lon="-0.31357">
        <ele>-77.4313256</ele>
        <time>2018-11-18T14:32:12Z</time>
      </trkpt>
      <trkpt lat="44.59261" lon="-0.31364">
        <ele>-51.7295688</ele>
        <time>2018-11-18T14:35:18Z</time>
      </trkpt>
      <trkpt lat="44.59294" lon="-0.31322">
        <ele>-75.928246</ele>
        <time>2018-11-18T14:36:18Z</time>
      </trkpt>
      <trkpt lat="44.59313" lon="-0.31265">
        <ele>-82.6274956</ele>
        <time>2018-11-18T14:37:09Z</time>
      </trkpt>
      <trkpt lat="44.59348" lon="-0.3123">
        <ele>-41.7260868</ele>
        <time>2018-11-18T14:37:41Z</time>
      </trkpt>
      <trkpt lat="44.59388" lon="-0.31242">
        <ele>-67.4244896</ele>
        <time>2018-11-18T14:38:08Z</time>
      </trkpt>
      <trkpt lat="44.59426" lon="-0.31273">
        <ele>-94.2229784</ele>
        <time>2018-11-18T14:38:18Z</time>
      </trkpt>
      <trkpt lat="44.59457" lon="-0.31314">
        <ele>-112.4217416</ele>
        <time>2018-11-18T14:38:33Z</time>
      </trkpt>
      <trkpt lat="44.59483" lon="-0.31363">
        <ele>-124.52068</ele>
        <time>2018-11-18T14:38:50Z</time>
      </trkpt>
      <trkpt lat="44.59527" lon="-0.31364">
        <ele>-140.7189288</ele>
        <time>2018-11-18T14:39:14Z</time>
      </trkpt>
      <trkpt lat="44.59545" lon="-0.31314">
        <ele>-113.9182104</ele>
        <time>2018-11-18T14:40:08Z</time>
      </trkpt>
      <trkpt lat="44.59507" lon="-0.31229">
        <ele>-74.6197352</ele>
        <time>2018-11-18T14:40:18Z</time>
      </trkpt>
      <trkpt lat="44.59471" lon="-0.31166">
        <ele>-65.221176</ele>
        <time>2018-11-18T14:40:27Z</time>
      </trkpt>
      <trkpt lat="44.59432" lon="-0.31118">
        <ele>-58.4227328</ele>
        <time>2018-11-18T14:40:36Z</time>
      </trkpt>
      <trkpt lat="44.59458" lon="-0.31068">
        <ele>-66.6216728</ele>
        <time>2018-11-18T14:42:24Z</time>
      </trkpt>
      <trkpt lat="44.59489" lon="-0.31024">
        <ele>-52.2204612</ele>
        <time>2018-11-18T14:44:23Z</time>
      </trkpt>
      <trkpt lat="44.59509" lon="-0.30969">
        <ele>-67.5196396</ele>
        <time>2018-11-18T14:45:00Z</time>
      </trkpt>
      <trkpt lat="44.59538" lon="-0.30922">
        <ele>-70.0184956</ele>
        <time>2018-11-18T14:45:42Z</time>
      </trkpt>
      <trkpt lat="44.59534" lon="-0.30862">
        <ele>-60.9186608</ele>
        <time>2018-11-18T14:46:30Z</time>
      </trkpt>
      <trkpt lat="44.5956" lon="-0.30814">
        <ele>-59.2176116</ele>
        <time>2018-11-18T14:47:26Z</time>
      </trkpt>
      <trkpt lat="44.59597" lon="-0.3078">
        <ele>-48.0161392</ele>
        <time>2018-11-18T14:48:03Z</time>
      </trkpt>
      <trkpt lat="44.59638" lon="-0.30756">
        <ele>-66.4144816</ele>
        <time>2018-11-18T14:48:36Z</time>
      </trkpt>
      <trkpt lat="44.59668" lon="-0.3071">
        <ele>-64.1132696</ele>
        <time>2018-11-18T14:49:32Z</time>
      </trkpt>
      <trkpt lat="44.59704" lon="-0.30674">
        <ele>-61.1118616</ele>
        <time>2018-11-18T14:50:03Z</time>
      </trkpt>
      <trkpt lat="44.59738" lon="-0.30634">
        <ele>-64.110494</ele>
        <time>2018-11-18T14:50:44Z</time>
      </trkpt>
      <trkpt lat="44.59701" lon="-0.30599">
        <ele>-51.61195</ele>
        <time>2018-11-18T14:51:24Z</time>
      </trkpt>
      <trkpt lat="44.59662" lon="-0.30573">
        <ele>-52.6135376</ele>
        <time>2018-11-18T14:52:03Z</time>
      </trkpt>
      <trkpt lat="44.59621" lon="-0.30551">
        <ele>-57.515178</ele>
        <time>2018-11-18T14:52:44Z</time>
      </trkpt>
      <trkpt lat="44.59606" lon="-0.30494">
        <ele>-46.6157604</ele>
        <time>2018-11-18T14:56:14Z</time>
      </trkpt>
      <trkpt lat="44.59567" lon="-0.30462">
        <ele>-40.2173032</ele>
        <time>2018-11-18T14:56:45Z</time>
      </trkpt>
      <trkpt lat="44.59523" lon="-0.30456">
        <ele>-39.1190772</ele>
        <time>2018-11-18T14:57:30Z</time>
      </trkpt>
      <trkpt lat="44.59518" lon="-0.30394">
        <ele>-63.719278</ele>
        <time>2018-11-18T14:58:14Z</time>
      </trkpt>
      <trkpt lat="44.59557" lon="-0.30373">
        <ele>-68.317738</ele>
        <time>2018-11-18T14:59:16Z</time>
      </trkpt>
      <trkpt lat="44.59597" lon="-0.30399">
        <ele>-62.3161384</ele>
        <time>2018-11-18T14:59:59Z</time>
      </trkpt>
      <trkpt lat="44.5964" lon="-0.30406">
        <ele>-58.2144188</ele>
        <time>2018-11-18T15:00:19Z</time>
      </trkpt>
      <trkpt lat="44.59678" lon="-0.30435">
        <ele>-40.2128752</ele>
        <time>2018-11-18T15:01:10Z</time>
      </trkpt>
      <trkpt lat="44.59714" lon="-0.30471">
        <ele>-30.7114444</ele>
        <time>2018-11-18T15:01:53Z</time>
      </trkpt>
      <trkpt lat="44.59758" lon="-0.30477">
        <ele>-46.9096628</ele>
        <time>2018-11-18T15:03:15Z</time>
      </trkpt>
      <trkpt lat="44.59787" lon="-0.30432">
        <ele>-52.6085376</ele>
        <time>2018-11-18T15:04:00Z</time>
      </trkpt>
      <trkpt lat="44.59817" lon="-0.3039">
        <ele>-56.2073076</ele>
        <time>2018-11-18T15:04:33Z</time>
      </trkpt>
      <trkpt lat="44.5984" lon="-0.30337">
        <ele>-59.8063948</ele>
        <time>2018-11-18T15:05:08Z</time>
      </trkpt>
      <trkpt lat="44.59867" lon="-0.30286">
        <ele>-60.605334</ele>
        <time>2018-11-18T15:05:47Z</time>
      </trkpt>
      <trkpt lat="44.59898" lon="-0.30242">
        <ele>-66.504088</ele>
        <time>2018-11-18T15:06:29Z</time>
      </trkpt>
      <trkpt lat="44.59916" lon="-0.30185">
        <ele>-66.7033524</ele>
        <time>2018-11-18T15:07:03Z</time>
      </trkpt>
      <trkpt lat="44.59943" lon="-0.30137">
        <ele>-63.3022892</ele>
        <time>2018-11-18T15:07:34Z</time>
      </trkpt>
      <trkpt lat="44.59961" lon="-0.30081">
        <ele>-54.4015528</ele>
        <time>2018-11-18T15:08:15Z</time>
      </trkpt>
      <trkpt lat="44.60002" lon="-0.30097">
        <ele>-49.6999032</ele>
        <time>2018-11-18T15:08:51Z</time>
      </trkpt>
      <trkpt lat="44.60042" lon="-0.30125">
        <ele>-45.7983084</ele>
        <time>2018-11-18T15:09:33Z</time>
      </trkpt>
      <trkpt lat="44.6007" lon="-0.30173">
        <ele>-41.0972152</ele>
        <time>2018-11-18T15:10:10Z</time>
      </trkpt>
      <trkpt lat="44.60109" lon="-0.302">
        <ele>-40.5956516</ele>
        <time>2018-11-18T15:11:00Z</time>
      </trkpt>
      <trkpt lat="44.60143" lon="-0.30241">
        <ele>-45.4942932</ele>
        <time>2018-11-18T15:13:15Z</time>
      </trkpt>
      <trkpt lat="44.60183" lon="-0.30268">
        <ele>-46.1926884</ele>
        <time>2018-11-18T15:13:55Z</time>
      </trkpt>
      <trkpt lat="44.60211" lon="-0.30314">
        <ele>-48.1915568</ele>
        <time>2018-11-18T15:14:44Z</time>
      </trkpt>
      <trkpt lat="44.60228" lon="-0.30313">
        <ele>-49.4908676</ele>
        <time>2018-11-18T15:15:03Z</time>
      </trkpt>
      <trkpt lat="44.60228" lon="-0.30313">
        <ele>-49.4908676</ele>
        <time>2018-11-18T15:15:04Z</time>
      </trkpt>
    </trkseg>
  </trk>
</gpx>